Time;durP1;ratioP1;P1;durP2;ratioP2;P2;SDS_P1;SDS_P2;PMS_P1;PMS_P2;Temp;Humidity;BMP_temperature;BMP_pressure;BME280_temperature;BME280_humidity;BME280_pressure;Samples;Min_cycle;Max_cycle;Signal;HPM_P1;HPM_P2
2024/04/15 00:01:15;;;;;;;7.70;2.00;;;;;;;;;;5319847;26;20263;-84
2024/04/15 00:03:43;;;;;;;9.03;2.10;;;;;;;;;;5321534;26;20263;-87
2024/04/15 00:06:12;;;;;;;7.63;1.70;;;;;;;;;;5290532;26;20278;-88
2024/04/15 00:08:37;;;;;;;7.40;2.00;;;;;;;;;;5315024;26;20272;-86
2024/04/15 00:11:04;;;;;;;10.40;2.07;;;;;;;;;;5337084;26;20259;-84
2024/04/15 00:13:33;;;;;;;7.70;1.70;;;;;;;;;;5320352;26;20351;-87
2024/04/15 00:16:02;;;;;;;7.07;1.70;;;;;;;;;;5287179;26;20280;-86
2024/04/15 00:18:27;;;;;;;7.07;1.73;;;;;;;;;;5317209;26;20264;-84
2024/04/15 00:20:59;;;;;;;6.70;1.70;;;;;;;;;;5289015;26;20255;-85
2024/04/15 00:23:27;;;;;;;7.27;1.50;;;;;;;;;;5289267;26;20605;-87
2024/04/15 00:25:56;;;;;;;6.03;1.50;;;;;;;;;;5311901;26;20248;-86
2024/04/15 00:28:24;;;;;;;8.40;2.07;;;;;;;;;;5312619;26;20346;-85
2024/04/15 00:30:49;;;;;;;7.87;1.83;;;;;;;;;;5292998;26;20286;-88
2024/04/15 00:33:15;;;;;;;9.03;2.00;;;;;;;;;;5320035;26;20262;-85
2024/04/15 00:35:46;;;;;;;7.70;1.90;;;;;;;;;;5315749;26;20311;-87
2024/04/15 00:38:15;;;;;;;6.77;1.90;;;;;;;;;;5309163;26;20275;-86
2024/04/15 00:40:43;;;;;;;7.90;1.73;;;;;;;;;;5317337;26;20609;-85
2024/04/15 00:43:11;;;;;;;7.40;1.77;;;;;;;;;;5316930;26;20636;-86
2024/04/15 00:45:37;;;;;;;5.57;1.80;;;;;;;;;;5316125;26;20263;-86
2024/04/15 00:48:03;;;;;;;6.40;1.80;;;;;;;;;;5345932;26;20862;-86
2024/04/15 00:50:30;;;;;;;7.87;1.83;;;;;;;;;;5279054;26;20293;-86
2024/04/15 00:52:56;;;;;;;8.20;2.03;;;;;;;;;;5340193;26;20731;-86
2024/04/15 00:55:21;;;;;;;5.90;1.73;;;;;;;;;;5331610;26;20259;-88
2024/04/15 00:57:47;;;;;;;7.17;1.83;;;;;;;;;;5318395;26;20650;-87
2024/04/15 01:00:13;;;;;;;7.10;1.87;;;;;;;;;;5325515;26;20631;-86
2024/04/15 01:02:42;;;;;;;5.00;1.63;;;;;;;;;;5320646;26;20305;-86
2024/04/15 01:05:10;;;;;;;6.50;1.90;;;;;;;;;;5323059;26;20325;-87
2024/04/15 01:07:38;;;;;;;8.47;1.63;;;;;;;;;;5292106;26;20251;-85
2024/04/15 01:10:04;;;;;;;5.60;1.73;;;;;;;;;;5315016;26;20267;-85
2024/04/15 01:12:32;;;;;;;6.83;1.80;;;;;;;;;;5283889;26;20663;-85
2024/04/15 01:14:57;;;;;;;7.23;1.87;;;;;;;;;;5309187;26;20251;-85
2024/04/15 01:17:23;;;;;;;6.23;1.50;;;;;;;;;;5362810;26;21194;-87
2024/04/15 01:19:49;;;;;;;9.00;1.90;;;;;;;;;;5315940;26;20341;-86
2024/04/15 01:22:21;;;;;;;5.20;1.73;;;;;;;;;;5335515;26;20350;-85
2024/04/15 01:24:50;;;;;;;6.67;1.80;;;;;;;;;;5342849;26;20270;-88
2024/04/15 01:27:17;;;;;;;5.97;1.70;;;;;;;;;;5297029;26;20640;-85
2024/04/15 01:29:45;;;;;;;8.47;1.93;;;;;;;;;;5313727;26;20285;-87
2024/04/15 01:32:11;;;;;;;6.87;1.70;;;;;;;;;;5317500;26;20258;-85
2024/04/15 01:34:39;;;;;;;8.33;1.47;;;;;;;;;;5318082;26;20276;-88
2024/04/15 01:37:04;;;;;;;8.47;2.30;;;;;;;;;;5289311;26;20282;-87
2024/04/15 01:39:30;;;;;;;6.73;1.80;;;;;;;;;;5321366;26;20259;-88
2024/04/15 01:42:05;;;;;;;5.13;1.73;;;;;;;;;;5320234;26;20290;-88
2024/04/15 01:44:31;;;;;;;8.03;2.03;;;;;;;;;;5316482;26;20615;-86
2024/04/15 01:46:59;;;;;;;8.37;2.20;;;;;;;;;;5260722;27;20316;-88
2024/04/15 01:49:25;;;;;;;7.50;1.77;;;;;;;;;;5308086;26;20263;-87
2024/04/15 01:51:50;;;;;;;6.70;1.97;;;;;;;;;;5319097;26;20262;-85
2024/04/15 01:54:16;;;;;;;7.93;2.00;;;;;;;;;;5306345;26;20359;-86
2024/04/15 01:56:50;;;;;;;8.20;1.60;;;;;;;;;;5319491;26;20267;-86
2024/04/15 01:59:18;;;;;;;8.77;2.00;;;;;;;;;;5343963;26;20274;-85
2024/04/15 02:01:45;;;;;;;6.30;1.73;;;;;;;;;;5281339;26;20763;-87
2024/04/15 02:04:14;;;;;;;6.10;1.70;;;;;;;;;;5287905;26;20256;-86
2024/04/15 02:06:42;;;;;;;9.53;1.83;;;;;;;;;;5296856;26;20271;-86
2024/04/15 02:09:08;;;;;;;7.90;2.00;;;;;;;;;;5318446;26;20290;-86
2024/04/15 02:11:34;;;;;;;9.77;1.90;;;;;;;;;;5318174;26;20327;-86
2024/04/15 02:13:59;;;;;;;9.07;1.90;;;;;;;;;;5290916;26;20293;-87
2024/04/15 02:16:27;;;;;;;9.57;2.00;;;;;;;;;;5318823;26;20626;-87
2024/04/15 02:18:53;;;;;;;5.97;2.00;;;;;;;;;;5325759;26;20297;-88
2024/04/15 02:21:21;;;;;;;5.60;1.87;;;;;;;;;;5348173;26;20259;-87
2024/04/15 02:23:47;;;;;;;7.73;1.83;;;;;;;;;;5344963;26;20624;-87
2024/04/15 02:26:13;;;;;;;11.00;1.97;;;;;;;;;;5313455;26;20263;-85
2024/04/15 02:28:38;;;;;;;5.83;1.87;;;;;;;;;;5306905;26;20285;-85
2024/04/15 02:31:07;;;;;;;10.40;2.10;;;;;;;;;;5316445;26;20271;-84
2024/04/15 02:33:33;;;;;;;8.83;1.90;;;;;;;;;;5313182;26;20342;-87
2024/04/15 02:35:59;;;;;;;7.70;1.90;;;;;;;;;;5317588;26;20299;-86
2024/04/15 02:38:26;;;;;;;4.70;1.60;;;;;;;;;;5311146;26;20721;-86
2024/04/15 02:40:54;;;;;;;6.80;1.80;;;;;;;;;;5312398;26;20264;-86
2024/04/15 02:43:24;;;;;;;9.17;1.77;;;;;;;;;;5278712;26;20780;-85
2024/04/15 02:45:54;;;;;;;6.73;1.60;;;;;;;;;;5317868;26;20263;-84
2024/04/15 02:48:20;;;;;;;9.43;1.90;;;;;;;;;;5315929;26;20709;-87
2024/04/15 02:50:50;;;;;;;8.43;1.90;;;;;;;;;;5318217;26;20255;-85
2024/04/15 02:53:15;;;;;;;8.90;1.73;;;;;;;;;;5298042;26;20652;-84
2024/04/15 02:55:43;;;;;;;8.27;1.93;;;;;;;;;;5295258;26;20305;-89
2024/04/15 02:58:11;;;;;;;4.37;1.53;;;;;;;;;;5376946;26;20262;-85
2024/04/15 03:00:39;;;;;;;7.83;1.90;;;;;;;;;;5321655;26;20747;-84
2024/04/15 03:03:06;;;;;;;7.63;1.90;;;;;;;;;;5314167;26;20322;-85
2024/04/15 03:05:34;;;;;;;9.17;1.80;;;;;;;;;;5314821;26;20263;-84
2024/04/15 03:08:00;;;;;;;6.43;1.90;;;;;;;;;;5351887;26;20262;-84
2024/04/15 03:10:28;;;;;;;8.67;2.07;;;;;;;;;;5318941;26;20259;-85
2024/04/15 03:12:56;;;;;;;7.97;2.00;;;;;;;;;;5313350;26;20356;-84
2024/04/15 03:15:22;;;;;;;7.43;1.80;;;;;;;;;;5290499;26;20285;-84
2024/04/15 03:17:50;;;;;;;8.37;2.03;;;;;;;;;;5320002;26;20336;-84
2024/04/15 03:20:16;;;;;;;5.87;1.60;;;;;;;;;;5297607;26;20692;-84
2024/04/15 03:22:47;;;;;;;7.23;2.07;;;;;;;;;;5346375;26;20255;-85
2024/04/15 03:25:13;;;;;;;8.10;2.20;;;;;;;;;;5320713;26;20645;-85
2024/04/15 03:27:38;;;;;;;6.43;1.80;;;;;;;;;;5319732;26;20255;-84
2024/04/15 03:30:07;;;;;;;11.97;3.40;;;;;;;;;;5319462;26;20263;-85
2024/04/15 03:32:35;;;;;;;9.30;2.67;;;;;;;;;;5320197;26;20259;-84
2024/04/15 03:35:00;;;;;;;8.53;2.43;;;;;;;;;;5291783;26;20266;-84
2024/04/15 03:37:26;;;;;;;31.73;18.70;;;;;;;;;;5320478;26;20584;-87
2024/04/15 03:39:57;;;;;;;11.57;5.30;;;;;;;;;;5305965;26;20263;-84
2024/04/15 03:42:22;;;;;;;8.77;2.40;;;;;;;;;;5343410;26;20323;-84
2024/04/15 03:44:52;;;;;;;22.87;11.43;;;;;;;;;;5321122;26;20352;-85
2024/04/15 03:47:22;;;;;;;5.63;2.17;;;;;;;;;;5315534;26;20312;-84
2024/04/15 03:49:50;;;;;;;8.17;3.47;;;;;;;;;;5349585;26;20263;-83
2024/04/15 03:52:16;;;;;;;6.47;2.30;;;;;;;;;;5318931;26;20263;-84
2024/04/15 03:54:41;;;;;;;6.80;1.63;;;;;;;;;;5347943;26;20297;-84
2024/04/15 03:57:10;;;;;;;8.33;2.43;;;;;;;;;;5312003;26;20299;-78
2024/04/15 04:03:23;;;;;;;6.37;1.80;;;;;;;;;;5321667;26;20366;-77
2024/04/15 04:05:53;;;;;;;5.43;1.73;;;;;;;;;;5262800;26;20267;-78
2024/04/15 04:08:18;;;;;;;6.60;1.60;;;;;;;;;;5320909;26;20259;-79
2024/04/15 04:10:44;;;;;;;9.00;1.77;;;;;;;;;;5298053;26;20683;-79
2024/04/15 04:13:09;;;;;;;6.07;1.73;;;;;;;;;;5324879;26;20332;-80
2024/04/15 04:15:37;;;;;;;5.83;1.73;;;;;;;;;;5302867;26;20251;-79
2024/04/15 04:18:08;;;;;;;5.10;1.80;;;;;;;;;;5295674;26;20705;-79
2024/04/15 04:20:34;;;;;;;7.23;2.00;;;;;;;;;;5303722;26;20693;-78
2024/04/15 04:22:59;;;;;;;8.47;2.13;;;;;;;;;;5295882;26;20271;-79
2024/04/15 04:25:25;;;;;;;7.43;1.83;;;;;;;;;;5322152;26;20279;-80
2024/04/15 04:27:53;;;;;;;5.83;1.87;;;;;;;;;;5307225;26;21464;-80
2024/04/15 04:30:18;;;;;;;6.17;1.77;;;;;;;;;;5307200;26;20268;-79
2024/04/15 04:32:44;;;;;;;7.73;2.10;;;;;;;;;;5309648;26;20776;-79
2024/04/15 04:35:10;;;;;;;6.20;1.70;;;;;;;;;;5327162;26;20294;-79
2024/04/15 04:37:38;;;;;;;8.60;2.27;;;;;;;;;;5266128;26;20252;-79
2024/04/15 04:40:03;;;;;;;7.77;1.83;;;;;;;;;;5279574;26;20298;-79
2024/04/15 04:42:29;;;;;;;7.87;2.03;;;;;;;;;;5296116;26;20302;-79
2024/04/15 04:44:55;;;;;;;7.17;1.90;;;;;;;;;;5323664;26;20305;-79
2024/04/15 04:47:21;;;;;;;7.30;1.80;;;;;;;;;;5296718;26;20259;-78
2024/04/15 04:49:56;;;;;;;6.87;1.80;;;;;;;;;;5302227;26;20280;-79
2024/04/15 04:52:21;;;;;;;10.93;2.20;;;;;;;;;;5266618;26;20289;-80
2024/04/15 04:54:49;;;;;;;7.67;2.40;;;;;;;;;;5271464;26;20262;-79
2024/04/15 04:57:15;;;;;;;6.33;1.70;;;;;;;;;;5300150;26;20289;-78
2024/04/15 04:59:41;;;;;;;8.27;1.73;;;;;;;;;;5301837;26;20300;-80
2024/04/15 05:02:06;;;;;;;4.87;1.73;;;;;;;;;;5323665;26;20263;-78
2024/04/15 05:04:33;;;;;;;7.73;1.77;;;;;;;;;;5326558;26;20259;-79
2024/04/15 05:06:58;;;;;;;8.60;2.40;;;;;;;;;;5352920;26;20913;-78
2024/04/15 05:09:24;;;;;;;5.43;1.90;;;;;;;;;;5277019;26;20295;-80
2024/04/15 05:11:50;;;;;;;6.90;2.00;;;;;;;;;;5331977;26;20299;-78
2024/04/15 05:14:15;;;;;;;8.37;2.10;;;;;;;;;;5324177;26;20306;-79
2024/04/15 05:16:41;;;;;;;8.30;2.00;;;;;;;;;;5320128;26;20662;-78
2024/04/15 05:19:08;;;;;;;5.93;2.23;;;;;;;;;;5312323;26;20263;-80
2024/04/15 05:21:34;;;;;;;7.83;1.90;;;;;;;;;;5326470;26;20260;-79
2024/04/15 05:23:59;;;;;;;4.33;2.20;;;;;;;;;;5294810;26;20263;-80
2024/04/15 05:26:25;;;;;;;8.93;2.40;;;;;;;;;;5277882;26;20285;-79
2024/04/15 05:28:51;;;;;;;9.00;2.53;;;;;;;;;;5320850;26;20263;-79
2024/04/15 05:31:16;;;;;;;7.00;2.00;;;;;;;;;;5325363;26;20607;-79
2024/04/15 05:33:42;;;;;;;4.00;1.97;;;;;;;;;;5300385;26;20290;-79
2024/04/15 05:36:09;;;;;;;6.53;2.00;;;;;;;;;;5332465;26;20726;-79
2024/04/15 05:38:37;;;;;;;8.77;2.10;;;;;;;;;;5332348;26;20281;-79
2024/04/15 05:41:05;;;;;;;6.30;2.13;;;;;;;;;;5297248;26;20311;-78
2024/04/15 05:43:30;;;;;;;7.23;1.93;;;;;;;;;;5325410;26;20260;-81
2024/04/15 05:45:56;;;;;;;7.37;1.93;;;;;;;;;;5298844;26;20290;-79
2024/04/15 05:48:22;;;;;;;4.93;1.87;;;;;;;;;;5324718;26;20258;-79
2024/04/15 05:50:47;;;;;;;8.43;2.10;;;;;;;;;;5324363;26;20364;-78
2024/04/15 05:53:13;;;;;;;4.93;2.03;;;;;;;;;;5295076;26;20297;-78
2024/04/15 05:55:40;;;;;;;7.13;2.20;;;;;;;;;;5268323;26;20267;-79
2024/04/15 05:58:05;;;;;;;6.30;2.13;;;;;;;;;;5326201;26;20438;-78
2024/04/15 06:00:31;;;;;;;9.17;1.90;;;;;;;;;;5365506;26;20406;-78
2024/04/15 06:03:01;;;;;;;26.50;16.57;;;;;;;;;;5346286;26;20259;-77
2024/04/15 06:05:27;;;;;;;12.30;7.93;;;;;;;;;;5309781;26;20248;-77
2024/04/15 06:07:54;;;;;;;8.07;2.23;;;;;;;;;;5311787;26;20260;-78
2024/04/15 06:10:20;;;;;;;3.90;1.30;;;;;;;;;;5343428;26;20790;-77
2024/04/15 06:12:47;;;;;;;8.07;1.90;;;;;;;;;;5341684;26;20363;-77
2024/04/15 06:15:12;;;;;;;3.47;1.37;;;;;;;;;;5324266;26;20264;-78
2024/04/15 06:17:41;;;;;;;4.67;1.23;;;;;;;;;;5345408;26;20328;-78
2024/04/15 06:20:07;;;;;;;3.87;1.40;;;;;;;;;;5342985;26;20264;-78
2024/04/15 06:22:33;;;;;;;3.67;1.67;;;;;;;;;;5338604;26;20278;-78
2024/04/15 06:24:58;;;;;;;7.37;1.80;;;;;;;;;;5366867;26;20251;-78
2024/04/15 06:27:24;;;;;;;4.50;1.80;;;;;;;;;;5363741;26;20266;-79
2024/04/15 06:29:49;;;;;;;3.67;1.60;;;;;;;;;;5295100;26;20360;-78
2024/04/15 06:32:17;;;;;;;5.13;1.50;;;;;;;;;;5306161;26;21155;-79
2024/04/15 06:34:42;;;;;;;7.03;1.80;;;;;;;;;;5272817;26;20258;-79
2024/04/15 06:37:10;;;;;;;4.60;1.70;;;;;;;;;;5327602;26;20256;-79
2024/04/15 06:39:37;;;;;;;5.10;1.90;;;;;;;;;;5325993;26;20392;-78
2024/04/15 06:42:03;;;;;;;4.60;1.60;;;;;;;;;;5353814;26;20302;-79
2024/04/15 06:44:31;;;;;;;4.30;1.60;;;;;;;;;;5299085;26;20260;-78
2024/04/15 06:46:57;;;;;;;3.93;1.40;;;;;;;;;;5301750;26;20326;-78
2024/04/15 06:49:22;;;;;;;5.23;1.50;;;;;;;;;;5301229;26;20683;-77
2024/04/15 06:51:50;;;;;;;4.57;1.60;;;;;;;;;;5302568;26;20801;-78
2024/04/15 06:54:19;;;;;;;4.40;1.80;;;;;;;;;;5328706;26;20858;-78
2024/04/15 06:56:44;;;;;;;5.30;2.00;;;;;;;;;;5298277;26;20305;-79
2024/04/15 06:59:10;;;;;;;4.53;1.90;;;;;;;;;;5306103;26;20310;-77
2024/04/15 07:01:37;;;;;;;6.27;1.80;;;;;;;;;;5327917;26;20263;-76
2024/04/15 07:04:05;;;;;;;5.60;2.30;;;;;;;;;;5322973;26;20264;-79
2024/04/15 07:06:30;;;;;;;5.07;2.30;;;;;;;;;;5306899;26;20264;-78
2024/04/15 07:08:56;;;;;;;5.13;2.00;;;;;;;;;;5322224;26;20260;-79
2024/04/15 07:11:26;;;;;;;6.83;2.50;;;;;;;;;;5303743;26;20273;-78
2024/04/15 07:13:56;;;;;;;5.40;2.30;;;;;;;;;;5306126;26;20436;-77
2024/04/15 07:16:22;;;;;;;7.07;3.30;;;;;;;;;;5278130;26;20332;-79
2024/04/15 07:18:47;;;;;;;6.53;3.20;;;;;;;;;;5297436;26;20267;-78
2024/04/15 07:21:13;;;;;;;5.83;3.07;;;;;;;;;;5326123;26;20310;-79
2024/04/15 07:23:38;;;;;;;5.30;3.10;;;;;;;;;;5325688;26;20352;-80
2024/04/15 07:26:09;;;;;;;5.33;3.10;;;;;;;;;;5350919;26;20303;-78
2024/04/15 07:28:37;;;;;;;7.77;3.80;;;;;;;;;;5295299;26;20260;-79
2024/04/15 07:31:04;;;;;;;5.40;3.30;;;;;;;;;;5297814;26;21083;-79
2024/04/15 07:33:33;;;;;;;7.07;3.60;;;;;;;;;;5294985;26;20333;-79
2024/04/15 07:35:59;;;;;;;6.40;3.77;;;;;;;;;;5297587;26;20333;-77
2024/04/15 07:38:25;;;;;;;8.10;3.67;;;;;;;;;;5296899;26;20264;-77
2024/04/15 07:40:51;;;;;;;6.30;3.30;;;;;;;;;;5352877;26;20791;-78
2024/04/15 07:43:17;;;;;;;7.37;3.77;;;;;;;;;;5311881;26;20315;-78
2024/04/15 07:45:46;;;;;;;5.93;3.80;;;;;;;;;;5302682;26;20597;-78
2024/04/15 07:48:14;;;;;;;5.93;3.77;;;;;;;;;;5326087;26;20263;-78
2024/04/15 07:50:40;;;;;;;7.23;4.00;;;;;;;;;;5306098;26;20290;-79
2024/04/15 07:53:08;;;;;;;6.13;3.93;;;;;;;;;;5270106;26;20357;-79
2024/04/15 07:55:34;;;;;;;7.47;4.10;;;;;;;;;;5330865;26;20310;-78
2024/04/15 07:57:59;;;;;;;7.30;3.70;;;;;;;;;;5355388;26;20256;-78
2024/04/15 08:00:27;;;;;;;5.93;3.83;;;;;;;;;;5348600;26;20298;-78
2024/04/15 08:02:55;;;;;;;5.50;3.47;;;;;;;;;;5297671;26;20259;-78
2024/04/15 08:05:23;;;;;;;8.07;3.73;;;;;;;;;;5333842;26;20606;-78
2024/04/15 08:07:51;;;;;;;5.13;3.23;;;;;;;;;;5266714;26;20632;-78
2024/04/15 08:10:20;;;;;;;6.13;3.43;;;;;;;;;;5307252;26;20254;-77
2024/04/15 08:12:45;;;;;;;7.47;3.50;;;;;;;;;;5265567;26;20738;-77
2024/04/15 08:15:14;;;;;;;6.67;3.17;;;;;;;;;;5298530;26;20366;-77
2024/04/15 08:17:42;;;;;;;6.25;3.38;;;;;;;;;;5308005;26;20255;-77
2024/04/15 08:20:11;;;;;;;6.50;3.30;;;;;;;;;;5324654;26;20368;-78
2024/04/15 08:22:43;;;;;;;3.73;2.57;;;;;;;;;;5322485;26;20251;-78
2024/04/15 08:25:11;;;;;;;8.57;2.80;;;;;;;;;;5272500;26;20258;-77
2024/04/15 08:27:37;;;;;;;5.47;2.93;;;;;;;;;;5331201;26;20364;-78
2024/04/15 08:30:03;;;;;;;5.60;2.70;;;;;;;;;;5303120;26;20286;-78
2024/04/15 08:32:29;;;;;;;3.87;2.63;;;;;;;;;;5299973;26;20778;-77
2024/04/15 08:34:57;;;;;;;5.87;3.00;;;;;;;;;;5296304;26;20251;-78
2024/04/15 08:37:25;;;;;;;6.50;3.03;;;;;;;;;;5322041;26;20252;-77
2024/04/15 08:39:50;;;;;;;5.70;2.80;;;;;;;;;;5308370;26;20306;-78
2024/04/15 08:42:25;;;;;;;5.70;2.63;;;;;;;;;;5290454;26;20255;-77
2024/04/15 08:44:51;;;;;;;4.93;2.72;;;;;;;;;;5311002;26;20678;-78
2024/04/15 08:47:28;;;;;;;5.95;2.70;;;;;;;;;;5330845;26;20293;-77
2024/04/15 08:49:57;;;;;;;5.75;2.60;;;;;;;;;;5294898;26;20606;-77
2024/04/15 08:52:25;;;;;;;5.30;2.78;;;;;;;;;;5336532;26;20272;-77
2024/04/15 08:54:50;;;;;;;4.47;2.30;;;;;;;;;;5299553;26;20290;-78
2024/04/15 08:57:16;;;;;;;5.28;2.00;;;;;;;;;;5324839;26;20364;-77
2024/04/15 08:59:43;;;;;;;6.07;2.50;;;;;;;;;;5305102;26;20276;-79
2024/04/15 09:02:10;;;;;;;6.35;2.10;;;;;;;;;;5327820;26;20598;-78
2024/04/15 09:04:35;;;;;;;5.25;2.00;;;;;;;;;;5323937;26;20346;-77
2024/04/15 09:07:01;;;;;;;5.68;1.95;;;;;;;;;;5298450;26;20679;-79
2024/04/15 09:09:26;;;;;;;3.88;1.90;;;;;;;;;;5296561;26;20673;-78
2024/04/15 09:11:52;;;;;;;8.98;2.30;;;;;;;;;;5325032;26;20602;-79
2024/04/15 09:14:20;;;;;;;5.57;2.10;;;;;;;;;;5330465;26;20271;-78
2024/04/15 09:16:48;;;;;;;5.25;1.77;;;;;;;;;;5311797;26;20276;-77
2024/04/15 09:19:13;;;;;;;6.25;2.20;;;;;;;;;;5300160;26;20301;-78
2024/04/15 09:21:39;;;;;;;4.05;1.75;;;;;;;;;;5265174;26;20247;-78
2024/04/15 09:24:12;;;;;;;5.30;2.20;;;;;;;;;;5331047;26;20297;-78
2024/04/15 09:26:39;;;;;;;3.95;1.80;;;;;;;;;;5310159;26;20334;-79
2024/04/15 09:29:05;;;;;;;3.65;1.75;;;;;;;;;;5324112;26;20732;-78
2024/04/15 09:31:31;;;;;;;4.45;2.03;;;;;;;;;;5329246;26;20289;-78
2024/04/15 09:33:59;;;;;;;5.30;2.00;;;;;;;;;;5301244;26;20259;-77
2024/04/15 09:36:29;;;;;;;7.40;2.10;;;;;;;;;;5329561;26;20268;-78
2024/04/15 09:38:55;;;;;;;5.13;2.10;;;;;;;;;;5321100;26;20255;-79
2024/04/15 09:41:23;;;;;;;4.93;2.50;;;;;;;;;;5307890;26;20286;-79
2024/04/15 09:43:49;;;;;;;4.93;2.60;;;;;;;;;;5328069;26;20316;-79
2024/04/15 09:46:14;;;;;;;4.97;2.50;;;;;;;;;;5326717;26;20259;-78
2024/04/15 09:48:42;;;;;;;4.38;2.42;;;;;;;;;;5276063;26;20254;-79
2024/04/15 09:51:13;;;;;;;5.10;2.10;;;;;;;;;;5281671;26;20721;-78
2024/04/15 09:53:46;;;;;;;5.35;2.65;;;;;;;;;;5328964;26;20686;-79
2024/04/15 09:56:21;;;;;;;4.22;2.40;;;;;;;;;;5330004;26;20263;-79
2024/04/15 09:58:55;;;;;;;5.72;2.30;;;;;;;;;;5327846;26;20950;-78
2024/04/15 10:01:32;;;;;;;4.20;2.75;;;;;;;;;;5295141;26;20372;-79
2024/04/15 10:04:10;;;;;;;5.03;2.42;;;;;;;;;;5301472;26;20295;-78
2024/04/15 10:06:47;;;;;;;4.28;2.67;;;;;;;;;;5313895;26;20250;-80
2024/04/15 10:09:13;;;;;;;5.85;2.72;;;;;;;;;;5312710;26;20270;-77
2024/04/15 10:11:39;;;;;;;6.45;2.80;;;;;;;;;;5303886;26;20251;-78
2024/04/15 10:14:06;;;;;;;5.45;2.88;;;;;;;;;;5333928;26;20270;-78
2024/04/15 10:16:36;;;;;;;6.13;2.95;;;;;;;;;;5335567;26;20363;-78
2024/04/15 10:19:17;;;;;;;6.95;2.55;;;;;;;;;;5305817;26;20313;-78
2024/04/15 10:21:45;;;;;;;7.72;2.85;;;;;;;;;;5324253;26;20777;-77
2024/04/15 10:24:11;;;;;;;4.68;2.53;;;;;;;;;;5286385;26;20256;-77
2024/04/15 10:26:46;;;;;;;4.75;2.80;;;;;;;;;;5305016;26;20282;-79
2024/04/15 10:29:22;;;;;;;3.80;2.20;;;;;;;;;;5329932;26;20259;-78
2024/04/15 10:31:53;;;;;;;5.13;2.47;;;;;;;;;;5292624;26;20307;-78
2024/04/15 10:34:24;;;;;;;4.78;2.28;;;;;;;;;;5327819;26;20263;-77
2024/04/15 10:36:55;;;;;;;5.32;2.50;;;;;;;;;;5293241;26;20268;-78
2024/04/15 10:39:22;;;;;;;3.67;2.00;;;;;;;;;;5323407;26;20386;-79
2024/04/15 10:41:50;;;;;;;3.42;2.05;;;;;;;;;;5296495;26;20314;-80
2024/04/15 10:44:15;;;;;;;4.82;2.30;;;;;;;;;;5298789;26;20278;-77
2024/04/15 10:46:45;;;;;;;5.22;2.30;;;;;;;;;;5326092;26;20374;-78
2024/04/15 10:49:14;;;;;;;4.55;2.08;;;;;;;;;;5306601;26;20264;-78
2024/04/15 10:51:40;;;;;;;4.15;2.10;;;;;;;;;;5296501;26;20254;-78
2024/04/15 10:54:08;;;;;;;4.38;2.40;;;;;;;;;;5300529;26;20290;-79
2024/04/15 10:56:33;;;;;;;5.22;2.85;;;;;;;;;;5308254;26;20247;-77
2024/04/15 10:59:03;;;;;;;6.60;2.35;;;;;;;;;;5294423;26;20271;-76
2024/04/15 11:01:31;;;;;;;4.72;2.25;;;;;;;;;;5326634;26;20259;-77
2024/04/15 11:03:57;;;;;;;4.50;2.50;;;;;;;;;;5302906;26;20263;-77
2024/04/15 11:06:23;;;;;;;5.55;2.60;;;;;;;;;;5295360;26;21280;-77
2024/04/15 11:08:51;;;;;;;5.53;2.47;;;;;;;;;;5262477;26;20331;-80
2024/04/15 11:11:16;;;;;;;5.78;2.85;;;;;;;;;;5322954;26;20294;-78
2024/04/15 11:13:42;;;;;;;4.18;2.95;;;;;;;;;;5272723;26;20325;-78
2024/04/15 11:16:11;;;;;;;5.50;3.33;;;;;;;;;;5328720;26;20776;-77
2024/04/15 11:18:38;;;;;;;4.93;3.10;;;;;;;;;;5307011;26;20331;-77
2024/04/15 11:21:04;;;;;;;6.85;2.75;;;;;;;;;;5348058;26;20254;-77
2024/04/15 11:23:32;;;;;;;6.10;3.28;;;;;;;;;;5295426;26;20293;-77
2024/04/15 11:25:59;;;;;;;4.88;3.70;;;;;;;;;;5326725;26;20252;-76
2024/04/15 11:28:25;;;;;;;5.00;3.85;;;;;;;;;;5301030;26;20251;-77
2024/04/15 11:30:51;;;;;;;8.77;4.50;;;;;;;;;;5319273;26;20928;-77
2024/04/15 11:33:16;;;;;;;7.35;4.70;;;;;;;;;;5269975;26;20266;-77
2024/04/15 11:35:52;;;;;;;8.00;5.10;;;;;;;;;;5307633;26;20256;-78
2024/04/15 11:38:20;;;;;;;7.45;4.80;;;;;;;;;;5299009;26;20259;-77
2024/04/15 11:40:50;;;;;;;6.38;4.88;;;;;;;;;;5293698;26;20264;-76
2024/04/15 11:43:19;;;;;;;7.72;5.40;;;;;;;;;;5307905;26;20255;-77
2024/04/15 11:45:53;;;;;;;6.53;5.28;;;;;;;;;;5313532;26;20263;-76
2024/04/15 11:48:27;;;;;;;8.00;6.10;;;;;;;;;;5351064;26;20251;-77
2024/04/15 11:50:53;;;;;;;9.65;6.38;;;;;;;;;;5294614;26;20300;-78
2024/04/15 11:53:24;;;;;;;9.85;6.30;;;;;;;;;;5326614;26;20259;-79
2024/04/15 11:55:53;;;;;;;8.50;5.72;;;;;;;;;;5299844;26;20255;-77
2024/04/15 11:58:20;;;;;;;10.57;5.80;;;;;;;;;;5296322;26;20254;-77
2024/04/15 12:00:50;;;;;;;11.07;5.57;;;;;;;;;;5298133;26;20615;-78
2024/04/15 12:03:16;;;;;;;8.48;5.43;;;;;;;;;;5301988;26;20275;-77
2024/04/15 12:05:42;;;;;;;10.90;5.68;;;;;;;;;;5295785;26;20950;-79
2024/04/15 12:08:07;;;;;;;8.50;5.88;;;;;;;;;;5280804;26;20267;-76
2024/04/15 12:10:34;;;;;;;7.05;5.45;;;;;;;;;;5323962;26;20373;-77
2024/04/15 12:12:59;;;;;;;7.45;5.40;;;;;;;;;;5298557;26;20305;-76
2024/04/15 12:15:25;;;;;;;8.35;4.95;;;;;;;;;;5323405;26;20260;-77
2024/04/15 12:17:51;;;;;;;8.27;5.22;;;;;;;;;;5298945;26;20255;-77
2024/04/15 12:20:16;;;;;;;7.78;4.70;;;;;;;;;;5302959;26;20315;-77
2024/04/15 12:22:44;;;;;;;7.60;4.80;;;;;;;;;;5308081;26;20265;-77
2024/04/15 12:25:10;;;;;;;5.95;4.43;;;;;;;;;;5293578;26;20337;-80
2024/04/15 12:27:36;;;;;;;8.90;5.00;;;;;;;;;;5295726;26;20295;-79
2024/04/15 12:30:02;;;;;;;6.43;4.82;;;;;;;;;;5309863;26;20299;-77
2024/04/15 12:32:31;;;;;;;6.63;4.40;;;;;;;;;;5236181;26;20266;-77
2024/04/15 12:34:59;;;;;;;7.13;4.70;;;;;;;;;;5349865;26;20268;-76
2024/04/15 12:37:24;;;;;;;8.40;4.55;;;;;;;;;;5328292;26;20398;-78
2024/04/15 12:39:50;;;;;;;6.43;4.88;;;;;;;;;;5299812;26;20265;-80
2024/04/15 12:42:15;;;;;;;5.88;4.70;;;;;;;;;;5306348;26;20656;-78
2024/04/15 12:44:41;;;;;;;6.20;3.92;;;;;;;;;;5270778;26;20256;-78
2024/04/15 12:47:09;;;;;;;6.18;4.53;;;;;;;;;;5326815;26;20315;-80
2024/04/15 12:49:34;;;;;;;7.40;4.35;;;;;;;;;;5333214;26;20894;-77
2024/04/15 12:52:00;;;;;;;7.00;4.43;;;;;;;;;;5299252;26;20341;-77
2024/04/15 12:54:28;;;;;;;5.20;4.07;;;;;;;;;;5334424;26;20364;-79
2024/04/15 12:56:53;;;;;;;5.32;4.25;;;;;;;;;;5300605;26;20294;-77
2024/04/15 12:59:19;;;;;;;6.32;4.57;;;;;;;;;;5295704;26;20252;-78
2024/04/15 13:01:44;;;;;;;8.57;4.65;;;;;;;;;;5306419;26;20259;-78
2024/04/15 13:04:12;;;;;;;7.47;3.90;;;;;;;;;;5325698;26;20307;-79
2024/04/15 13:06:38;;;;;;;5.68;3.80;;;;;;;;;;5322954;26;20262;-78
2024/04/15 13:09:03;;;;;;;6.95;3.55;;;;;;;;;;5322811;26;20263;-77
2024/04/15 13:11:30;;;;;;;4.93;3.50;;;;;;;;;;5294377;26;20258;-78
2024/04/15 13:13:55;;;;;;;8.32;3.92;;;;;;;;;;5264842;26;20259;-77
2024/04/15 13:16:21;;;;;;;5.90;3.30;;;;;;;;;;5291635;26;20306;-77
2024/04/15 13:18:46;;;;;;;4.93;3.75;;;;;;;;;;5322081;26;20258;-78
2024/04/15 13:21:15;;;;;;;7.10;4.07;;;;;;;;;;5323134;26;20267;-77
2024/04/15 13:23:44;;;;;;;7.07;3.83;;;;;;;;;;5299068;26;20325;-77
2024/04/15 13:26:12;;;;;;;3.95;3.55;;;;;;;;;;5328128;26;20753;-78
2024/04/15 13:28:37;;;;;;;7.82;4.20;;;;;;;;;;5299686;26;20269;-80
2024/04/15 13:31:03;;;;;;;5.32;3.40;;;;;;;;;;5297154;26;20252;-77
2024/04/15 13:33:32;;;;;;;4.65;3.22;;;;;;;;;;5292510;26;20322;-77
2024/04/15 13:35:59;;;;;;;4.55;3.00;;;;;;;;;;5332809;26;20254;-78
2024/04/15 13:38:31;;;;;;;5.20;3.13;;;;;;;;;;5321885;26;20294;-78
2024/04/15 13:40:58;;;;;;;4.45;3.00;;;;;;;;;;5300520;26;20295;-78
2024/04/15 13:43:24;;;;;;;6.20;2.58;;;;;;;;;;5272990;26;20264;-78
2024/04/15 13:45:50;;;;;;;5.65;2.70;;;;;;;;;;5332442;26;20260;-77
2024/04/15 13:48:16;;;;;;;5.50;2.20;;;;;;;;;;5328296;26;20260;-77
2024/04/15 13:50:44;;;;;;;4.82;2.40;;;;;;;;;;5326078;26;20259;-77
2024/04/15 13:53:10;;;;;;;3.63;2.08;;;;;;;;;;5290813;26;20766;-78
2024/04/15 13:55:36;;;;;;;4.35;2.13;;;;;;;;;;5349298;26;20272;-78
2024/04/15 13:58:07;;;;;;;4.65;2.08;;;;;;;;;;5267326;26;20260;-79
2024/04/15 14:00:32;;;;;;;3.28;1.90;;;;;;;;;;5329496;26;20264;-77
2024/04/15 14:03:00;;;;;;;3.60;1.70;;;;;;;;;;5328559;26;21230;-78
2024/04/15 14:05:28;;;;;;;3.72;2.08;;;;;;;;;;5300257;26;20275;-78
2024/04/15 14:07:58;;;;;;;3.70;1.90;;;;;;;;;;5332168;26;20262;-77
2024/04/15 14:10:24;;;;;;;3.10;1.75;;;;;;;;;;5353686;26;20280;-78
2024/04/15 14:12:51;;;;;;;3.00;1.73;;;;;;;;;;5301070;26;20261;-78
2024/04/15 14:15:17;;;;;;;2.97;1.98;;;;;;;;;;5300438;26;20769;-78
2024/04/15 14:17:42;;;;;;;3.55;1.80;;;;;;;;;;5333537;26;20258;-78
2024/04/15 14:20:12;;;;;;;4.43;1.80;;;;;;;;;;5266497;26;20259;-77
2024/04/15 14:22:38;;;;;;;3.95;1.65;;;;;;;;;;5328431;26;20430;-77
2024/04/15 14:25:04;;;;;;;3.38;1.63;;;;;;;;;;5268520;26;20719;-77
2024/04/15 14:27:30;;;;;;;2.35;1.65;;;;;;;;;;5326909;26;20251;-79
2024/04/15 14:29:58;;;;;;;3.40;1.65;;;;;;;;;;5323610;26;20264;-78
2024/04/15 14:32:26;;;;;;;3.92;1.42;;;;;;;;;;5332787;26;21058;-80
2024/04/15 14:34:52;;;;;;;5.32;1.58;;;;;;;;;;5326444;26;20268;-78
2024/04/15 14:37:17;;;;;;;3.08;1.50;;;;;;;;;;5327558;26;20260;-77
2024/04/15 14:39:43;;;;;;;2.85;1.17;;;;;;;;;;5329258;26;20316;-80
2024/04/15 14:42:08;;;;;;;5.40;1.48;;;;;;;;;;5328642;26;20307;-79
2024/04/15 14:44:36;;;;;;;3.33;1.33;;;;;;;;;;5319952;26;20336;-79
2024/04/15 14:47:02;;;;;;;3.42;1.40;;;;;;;;;;5331921;26;20263;-80